sensor_id;sensor_type;location;lat;lon;timestamp;P1;durP1;ratioP1;P2;durP2;ratioP2
815;SDS011;25928;51.062;13.752;2022-10-22T00:00:26;33.60;;;23.20;;
815;SDS011;25928;51.062;13.752;2022-10-22T00:02:53;30.73;;;23.10;;
815;SDS011;25928;51.062;13.752;2022-10-22T00:05:18;27.70;;;22.27;;
815;SDS011;25928;51.062;13.752;2022-10-22T00:07:44;33.80;;;23.83;;
815;SDS011;25928;51.062;13.752;2022-10-22T00:10:09;30.83;;;22.87;;
815;SDS011;25928;51.062;13.752;2022-10-22T00:12:35;34.43;;;23.50;;
815;SDS011;25928;51.062;13.752;2022-10-22T00:15:02;29.10;;;24.00;;
815;SDS011;25928;51.062;13.752;2022-10-22T00:17:29;34.87;;;24.53;;
815;SDS011;25928;51.062;13.752;2022-10-22T00:19:54;35.03;;;25.30;;
815;SDS011;25928;51.062;13.752;2022-10-22T00:22:20;36.63;;;24.90;;
815;SDS011;25928;51.062;13.752;2022-10-22T00:24:45;34.53;;;24.90;;
815;SDS011;25928;51.062;13.752;2022-10-22T00:27:11;30.00;;;23.43;;
815;SDS011;25928;51.062;13.752;2022-10-22T00:29:37;32.70;;;22.93;;
815;SDS011;25928;51.062;13.752;2022-10-22T00:32:03;34.60;;;24.20;;
815;SDS011;25928;51.062;13.752;2022-10-22T00:34:29;35.17;;;25.37;;
815;SDS011;25928;51.062;13.752;2022-10-22T00:36:55;35.47;;;24.73;;
815;SDS011;25928;51.062;13.752;2022-10-22T00:39:21;33.80;;;23.60;;
815;SDS011;25928;51.062;13.752;2022-10-22T00:41:49;37.03;;;26.30;;
815;SDS011;25928;51.062;13.752;2022-10-22T00:47:19;37.70;;;25.70;;
815;SDS011;25928;51.062;13.752;2022-10-22T00:49:46;38.30;;;26.43;;
815;SDS011;25928;51.062;13.752;2022-10-22T00:52:12;36.70;;;26.33;;
815;SDS011;25928;51.062;13.752;2022-10-22T00:54:38;40.67;;;27.80;;
815;SDS011;25928;51.062;13.752;2022-10-22T00:57:05;37.13;;;26.27;;
815;SDS011;25928;51.062;13.752;2022-10-22T00:59:31;41.07;;;27.90;;
815;SDS011;25928;51.062;13.752;2022-10-22T01:01:57;39.47;;;28.20;;
815;SDS011;25928;51.062;13.752;2022-10-22T01:04:23;40.87;;;26.90;;
815;SDS011;25928;51.062;13.752;2022-10-22T01:06:49;35.63;;;26.47;;
815;SDS011;25928;51.062;13.752;2022-10-22T01:29:23;36.90;;;25.90;;
815;SDS011;25928;51.062;13.752;2022-10-22T01:31:55;35.47;;;25.30;;
815;SDS011;25928;51.062;13.752;2022-10-22T01:34:32;35.80;;;26.43;;
815;SDS011;25928;51.062;13.752;2022-10-22T01:36:59;37.60;;;25.93;;
815;SDS011;25928;51.062;13.752;2022-10-22T01:39:26;40.70;;;27.60;;
815;SDS011;25928;51.062;13.752;2022-10-22T01:41:55;41.30;;;28.40;;
815;SDS011;25928;51.062;13.752;2022-10-22T01:44:34;41.63;;;28.13;;
815;SDS011;25928;51.062;13.752;2022-10-22T01:49:37;36.10;;;26.20;;
815;SDS011;25928;51.062;13.752;2022-10-22T01:52:35;36.97;;;25.43;;
815;SDS011;25928;51.062;13.752;2022-10-22T02:00:45;35.67;;;26.40;;
815;SDS011;25928;51.062;13.752;2022-10-22T02:03:47;44.60;;;27.90;;
815;SDS011;25928;51.062;13.752;2022-10-22T02:06:23;38.07;;;25.73;;
815;SDS011;25928;51.062;13.752;2022-10-22T02:08:50;36.67;;;26.73;;
815;SDS011;25928;51.062;13.752;2022-10-22T02:11:18;36.87;;;27.37;;
815;SDS011;25928;51.062;13.752;2022-10-22T02:13:48;39.37;;;25.60;;
815;SDS011;25928;51.062;13.752;2022-10-22T02:16:18;37.30;;;25.90;;
815;SDS011;25928;51.062;13.752;2022-10-22T02:18:51;37.90;;;26.00;;
815;SDS011;25928;51.062;13.752;2022-10-22T02:21:18;32.47;;;24.20;;
815;SDS011;25928;51.062;13.752;2022-10-22T02:23:44;33.47;;;24.47;;
815;SDS011;25928;51.062;13.752;2022-10-22T02:26:13;34.57;;;24.77;;
815;SDS011;25928;51.062;13.752;2022-10-22T02:28:55;37.90;;;26.63;;
815;SDS011;25928;51.062;13.752;2022-10-22T02:31:27;37.23;;;24.30;;
815;SDS011;25928;51.062;13.752;2022-10-22T02:33:56;32.90;;;24.30;;
815;SDS011;25928;51.062;13.752;2022-10-22T02:36:25;36.70;;;25.20;;
815;SDS011;25928;51.062;13.752;2022-10-22T02:38:51;35.17;;;25.40;;
815;SDS011;25928;51.062;13.752;2022-10-22T02:41:18;34.03;;;24.27;;
815;SDS011;25928;51.062;13.752;2022-10-22T02:43:49;37.03;;;25.67;;
815;SDS011;25928;51.062;13.752;2022-10-22T02:46:17;38.60;;;26.03;;
815;SDS011;25928;51.062;13.752;2022-10-22T02:48:42;34.67;;;25.30;;
815;SDS011;25928;51.062;13.752;2022-10-22T02:51:08;38.83;;;26.50;;
815;SDS011;25928;51.062;13.752;2022-10-22T02:53:34;32.10;;;23.90;;
815;SDS011;25928;51.062;13.752;2022-10-22T02:55:59;34.70;;;24.00;;
815;SDS011;25928;51.062;13.752;2022-10-22T02:58:25;36.47;;;24.97;;
815;SDS011;25928;51.062;13.752;2022-10-22T03:00:50;34.87;;;25.47;;
815;SDS011;25928;51.062;13.752;2022-10-22T03:03:16;35.33;;;24.87;;
815;SDS011;25928;51.062;13.752;2022-10-22T03:05:41;31.97;;;23.83;;
815;SDS011;25928;51.062;13.752;2022-10-22T03:08:07;34.13;;;24.33;;
815;SDS011;25928;51.062;13.752;2022-10-22T03:10:32;33.13;;;23.23;;
815;SDS011;25928;51.062;13.752;2022-10-22T03:12:58;35.17;;;24.60;;
815;SDS011;25928;51.062;13.752;2022-10-22T03:15:24;35.47;;;26.03;;
815;SDS011;25928;51.062;13.752;2022-10-22T03:17:50;34.40;;;24.30;;
815;SDS011;25928;51.062;13.752;2022-10-22T03:20:15;38.87;;;25.40;;
815;SDS011;25928;51.062;13.752;2022-10-22T03:22:41;33.40;;;23.80;;
815;SDS011;25928;51.062;13.752;2022-10-22T03:25:09;36.80;;;25.40;;
815;SDS011;25928;51.062;13.752;2022-10-22T03:27:38;33.57;;;23.33;;
815;SDS011;25928;51.062;13.752;2022-10-22T03:30:05;33.03;;;23.77;;
815;SDS011;25928;51.062;13.752;2022-10-22T03:32:31;33.20;;;24.20;;
815;SDS011;25928;51.062;13.752;2022-10-22T03:34:57;32.90;;;23.90;;
815;SDS011;25928;51.062;13.752;2022-10-22T03:37:23;36.47;;;24.60;;
815;SDS011;25928;51.062;13.752;2022-10-22T03:39:50;33.57;;;25.60;;
815;SDS011;25928;51.062;13.752;2022-10-22T03:42:16;37.80;;;26.67;;
815;SDS011;25928;51.062;13.752;2022-10-22T03:44:42;35.27;;;23.07;;
815;SDS011;25928;51.062;13.752;2022-10-22T03:47:09;38.50;;;26.00;;
815;SDS011;25928;51.062;13.752;2022-10-22T03:49:34;34.20;;;24.90;;
815;SDS011;25928;51.062;13.752;2022-10-22T03:52:04;34.00;;;25.07;;
815;SDS011;25928;51.062;13.752;2022-10-22T03:54:34;37.30;;;24.10;;
815;SDS011;25928;51.062;13.752;2022-10-22T03:57:01;38.07;;;25.40;;
815;SDS011;25928;51.062;13.752;2022-10-22T03:59:27;34.70;;;24.20;;
815;SDS011;25928;51.062;13.752;2022-10-22T04:01:52;33.53;;;23.30;;
815;SDS011;25928;51.062;13.752;2022-10-22T04:04:18;35.93;;;23.70;;
815;SDS011;25928;51.062;13.752;2022-10-22T04:06:43;34.90;;;26.60;;
815;SDS011;25928;51.062;13.752;2022-10-22T04:09:09;35.80;;;25.07;;
815;SDS011;25928;51.062;13.752;2022-10-22T04:11:35;34.00;;;24.67;;
815;SDS011;25928;51.062;13.752;2022-10-22T04:14:01;33.73;;;24.30;;
815;SDS011;25928;51.062;13.752;2022-10-22T04:16:27;37.33;;;26.30;;
815;SDS011;25928;51.062;13.752;2022-10-22T04:18:55;34.03;;;24.90;;
815;SDS011;25928;51.062;13.752;2022-10-22T04:21:21;36.37;;;26.90;;
815;SDS011;25928;51.062;13.752;2022-10-22T04:23:48;34.10;;;24.20;;
815;SDS011;25928;51.062;13.752;2022-10-22T04:26:15;34.97;;;25.43;;
815;SDS011;25928;51.062;13.752;2022-10-22T04:28:41;36.77;;;26.70;;
815;SDS011;25928;51.062;13.752;2022-10-22T04:31:08;34.63;;;23.97;;
815;SDS011;25928;51.062;13.752;2022-10-22T04:33:34;34.37;;;24.70;;
815;SDS011;25928;51.062;13.752;2022-10-22T04:36:04;33.90;;;24.97;;
815;SDS011;25928;51.062;13.752;2022-10-22T04:38:41;40.33;;;26.23;;
815;SDS011;25928;51.062;13.752;2022-10-22T04:41:08;38.70;;;26.80;;
815;SDS011;25928;51.062;13.752;2022-10-22T04:43:35;33.00;;;24.40;;
815;SDS011;25928;51.062;13.752;2022-10-22T04:46:01;35.13;;;24.87;;
815;SDS011;25928;51.062;13.752;2022-10-22T04:48:26;35.70;;;23.87;;
815;SDS011;25928;51.062;13.752;2022-10-22T04:50:52;34.07;;;25.93;;
815;SDS011;25928;51.062;13.752;2022-10-22T04:53:17;33.60;;;24.23;;
815;SDS011;25928;51.062;13.752;2022-10-22T04:55:43;32.57;;;24.20;;
815;SDS011;25928;51.062;13.752;2022-10-22T04:58:08;34.70;;;25.37;;
815;SDS011;25928;51.062;13.752;2022-10-22T05:00:34;31.13;;;22.67;;
815;SDS011;25928;51.062;13.752;2022-10-22T05:02:59;34.70;;;24.03;;
815;SDS011;25928;51.062;13.752;2022-10-22T05:05:25;32.63;;;23.67;;
815;SDS011;25928;51.062;13.752;2022-10-22T05:07:50;35.10;;;23.87;;
815;SDS011;25928;51.062;13.752;2022-10-22T05:10:16;36.37;;;26.13;;
815;SDS011;25928;51.062;13.752;2022-10-22T05:12:41;33.67;;;24.07;;
815;SDS011;25928;51.062;13.752;2022-10-22T05:15:07;32.97;;;23.87;;
815;SDS011;25928;51.062;13.752;2022-10-22T05:17:36;31.63;;;23.40;;
815;SDS011;25928;51.062;13.752;2022-10-22T05:20:03;33.67;;;24.97;;
815;SDS011;25928;51.062;13.752;2022-10-22T05:22:29;36.43;;;22.20;;
815;SDS011;25928;51.062;13.752;2022-10-22T05:24:54;31.00;;;24.00;;
815;SDS011;25928;51.062;13.752;2022-10-22T05:27:20;31.67;;;23.70;;
815;SDS011;25928;51.062;13.752;2022-10-22T05:29:45;33.30;;;23.17;;
815;SDS011;25928;51.062;13.752;2022-10-22T05:32:11;34.73;;;22.53;;
815;SDS011;25928;51.062;13.752;2022-10-22T05:34:37;31.23;;;22.20;;
815;SDS011;25928;51.062;13.752;2022-10-22T05:37:02;30.13;;;23.20;;
815;SDS011;25928;51.062;13.752;2022-10-22T05:39:28;30.40;;;22.70;;
815;SDS011;25928;51.062;13.752;2022-10-22T05:41:53;32.83;;;23.80;;
815;SDS011;25928;51.062;13.752;2022-10-22T05:44:19;33.37;;;24.40;;
815;SDS011;25928;51.062;13.752;2022-10-22T05:46:44;32.17;;;23.20;;
815;SDS011;25928;51.062;13.752;2022-10-22T05:49:11;34.73;;;23.17;;
815;SDS011;25928;51.062;13.752;2022-10-22T05:51:38;36.83;;;23.77;;
815;SDS011;25928;51.062;13.752;2022-10-22T05:54:05;32.27;;;23.10;;
815;SDS011;25928;51.062;13.752;2022-10-22T05:56:32;34.57;;;22.53;;
815;SDS011;25928;51.062;13.752;2022-10-22T05:58:58;29.83;;;21.40;;
815;SDS011;25928;51.062;13.752;2022-10-22T06:01:28;27.40;;;21.60;;
815;SDS011;25928;51.062;13.752;2022-10-22T06:03:56;33.60;;;23.80;;
815;SDS011;25928;51.062;13.752;2022-10-22T06:06:28;32.10;;;23.40;;
815;SDS011;25928;51.062;13.752;2022-10-22T06:09:19;34.97;;;24.07;;
815;SDS011;25928;51.062;13.752;2022-10-22T06:11:45;30.83;;;22.97;;
815;SDS011;25928;51.062;13.752;2022-10-22T06:14:12;30.10;;;22.13;;
815;SDS011;25928;51.062;13.752;2022-10-22T06:16:38;32.83;;;22.17;;
815;SDS011;25928;51.062;13.752;2022-10-22T06:19:05;29.07;;;22.23;;
815;SDS011;25928;51.062;13.752;2022-10-22T06:21:32;29.97;;;22.00;;
815;SDS011;25928;51.062;13.752;2022-10-22T06:23:58;29.93;;;23.27;;
815;SDS011;25928;51.062;13.752;2022-10-22T06:26:24;28.77;;;20.10;;
815;SDS011;25928;51.062;13.752;2022-10-22T06:28:50;29.77;;;21.17;;
815;SDS011;25928;51.062;13.752;2022-10-22T06:31:16;31.47;;;22.20;;
815;SDS011;25928;51.062;13.752;2022-10-22T06:33:42;29.50;;;21.10;;
815;SDS011;25928;51.062;13.752;2022-10-22T06:36:12;25.40;;;19.97;;
815;SDS011;25928;51.062;13.752;2022-10-22T06:38:42;26.87;;;20.43;;
815;SDS011;25928;51.062;13.752;2022-10-22T06:41:09;28.33;;;20.70;;
815;SDS011;25928;51.062;13.752;2022-10-22T06:43:37;27.83;;;20.40;;
815;SDS011;25928;51.062;13.752;2022-10-22T06:46:05;30.10;;;20.60;;
815;SDS011;25928;51.062;13.752;2022-10-22T06:48:33;29.17;;;20.80;;
815;SDS011;25928;51.062;13.752;2022-10-22T06:51:02;29.17;;;21.60;;
815;SDS011;25928;51.062;13.752;2022-10-22T06:53:29;27.00;;;21.77;;
815;SDS011;25928;51.062;13.752;2022-10-22T06:55:55;34.30;;;21.90;;
815;SDS011;25928;51.062;13.752;2022-10-22T06:58:21;29.73;;;21.83;;
815;SDS011;25928;51.062;13.752;2022-10-22T07:00:46;30.07;;;21.70;;
815;SDS011;25928;51.062;13.752;2022-10-22T07:03:12;25.67;;;20.10;;
815;SDS011;25928;51.062;13.752;2022-10-22T07:05:38;27.83;;;20.87;;
815;SDS011;25928;51.062;13.752;2022-10-22T07:08:05;27.67;;;20.97;;
815;SDS011;25928;51.062;13.752;2022-10-22T07:10:30;33.60;;;23.00;;
815;SDS011;25928;51.062;13.752;2022-10-22T07:12:56;32.60;;;22.33;;
815;SDS011;25928;51.062;13.752;2022-10-22T07:15:22;28.50;;;21.43;;
815;SDS011;25928;51.062;13.752;2022-10-22T07:17:48;28.80;;;21.57;;
815;SDS011;25928;51.062;13.752;2022-10-22T07:20:15;30.70;;;20.93;;
815;SDS011;25928;51.062;13.752;2022-10-22T07:22:42;26.50;;;19.83;;
815;SDS011;25928;51.062;13.752;2022-10-22T07:25:08;29.20;;;21.90;;
815;SDS011;25928;51.062;13.752;2022-10-22T07:27:34;28.57;;;21.20;;
815;SDS011;25928;51.062;13.752;2022-10-22T07:30:00;34.40;;;20.93;;
815;SDS011;25928;51.062;13.752;2022-10-22T07:32:25;30.50;;;20.90;;
815;SDS011;25928;51.062;13.752;2022-10-22T07:34:51;30.80;;;21.13;;
815;SDS011;25928;51.062;13.752;2022-10-22T07:37:17;26.57;;;20.67;;
815;SDS011;25928;51.062;13.752;2022-10-22T07:39:45;31.37;;;21.37;;
815;SDS011;25928;51.062;13.752;2022-10-22T07:42:14;31.77;;;21.30;;
815;SDS011;25928;51.062;13.752;2022-10-22T07:44:40;29.20;;;20.40;;
815;SDS011;25928;51.062;13.752;2022-10-22T07:47:06;28.87;;;20.30;;
815;SDS011;25928;51.062;13.752;2022-10-22T07:49:31;31.93;;;22.57;;
815;SDS011;25928;51.062;13.752;2022-10-22T07:51:57;29.20;;;21.30;;
815;SDS011;25928;51.062;13.752;2022-10-22T07:54:22;25.90;;;19.57;;
815;SDS011;25928;51.062;13.752;2022-10-22T07:56:48;27.07;;;20.20;;
815;SDS011;25928;51.062;13.752;2022-10-22T07:59:14;34.23;;;23.57;;
815;SDS011;25928;51.062;13.752;2022-10-22T08:01:39;29.10;;;21.43;;
815;SDS011;25928;51.062;13.752;2022-10-22T08:04:05;31.73;;;23.57;;
815;SDS011;25928;51.062;13.752;2022-10-22T08:06:33;32.57;;;22.63;;
815;SDS011;25928;51.062;13.752;2022-10-22T08:09:00;36.40;;;22.57;;
815;SDS011;25928;51.062;13.752;2022-10-22T08:11:26;31.37;;;22.70;;
815;SDS011;25928;51.062;13.752;2022-10-22T08:13:52;29.97;;;23.67;;
815;SDS011;25928;51.062;13.752;2022-10-22T08:16:17;35.07;;;23.80;;
815;SDS011;25928;51.062;13.752;2022-10-22T08:18:43;30.33;;;22.70;;
815;SDS011;25928;51.062;13.752;2022-10-22T08:21:09;32.33;;;20.93;;
815;SDS011;25928;51.062;13.752;2022-10-22T08:23:38;29.83;;;22.07;;
815;SDS011;25928;51.062;13.752;2022-10-22T08:26:04;28.53;;;20.57;;
815;SDS011;25928;51.062;13.752;2022-10-22T08:28:29;28.90;;;20.13;;
815;SDS011;25928;51.062;13.752;2022-10-22T08:30:59;30.03;;;22.00;;
815;SDS011;25928;51.062;13.752;2022-10-22T08:36:17;28.70;;;21.37;;
815;SDS011;25928;51.062;13.752;2022-10-22T08:38:42;27.73;;;19.27;;
815;SDS011;25928;51.062;13.752;2022-10-22T08:41:15;28.00;;;19.50;;
815;SDS011;25928;51.062;13.752;2022-10-22T08:49:48;24.80;;;18.50;;
815;SDS011;25928;51.062;13.752;2022-10-22T08:52:15;24.40;;;18.53;;
815;SDS011;25928;51.062;13.752;2022-10-22T08:54:50;24.13;;;18.40;;
815;SDS011;25928;51.062;13.752;2022-10-22T09:00:08;22.10;;;17.60;;
815;SDS011;25928;51.062;13.752;2022-10-22T09:07:36;20.27;;;16.70;;
815;SDS011;25928;51.062;13.752;2022-10-22T09:10:04;19.90;;;16.50;;
815;SDS011;25928;51.062;13.752;2022-10-22T09:12:29;22.90;;;17.60;;
815;SDS011;25928;51.062;13.752;2022-10-22T09:14:55;19.80;;;16.20;;
815;SDS011;25928;51.062;13.752;2022-10-22T09:17:35;17.80;;;15.60;;
815;SDS011;25928;51.062;13.752;2022-10-22T09:25:28;19.63;;;16.00;;
815;SDS011;25928;51.062;13.752;2022-10-22T09:27:56;18.50;;;14.07;;
815;SDS011;25928;51.062;13.752;2022-10-22T09:30:27;17.27;;;14.20;;
815;SDS011;25928;51.062;13.752;2022-10-22T09:32:59;17.30;;;15.37;;
815;SDS011;25928;51.062;13.752;2022-10-22T09:35:52;18.63;;;13.80;;
815;SDS011;25928;51.062;13.752;2022-10-22T09:38:22;16.53;;;12.00;;
815;SDS011;25928;51.062;13.752;2022-10-22T09:40:54;16.03;;;13.50;;
815;SDS011;25928;51.062;13.752;2022-10-22T09:43:22;16.40;;;12.93;;
815;SDS011;25928;51.062;13.752;2022-10-22T09:45:48;15.30;;;13.00;;
815;SDS011;25928;51.062;13.752;2022-10-22T09:48:22;14.83;;;13.30;;
815;SDS011;25928;51.062;13.752;2022-10-22T09:53:58;13.80;;;12.03;;
815;SDS011;25928;51.062;13.752;2022-10-22T09:56:36;14.00;;;12.50;;
815;SDS011;25928;51.062;13.752;2022-10-22T09:59:05;14.30;;;12.07;;
815;SDS011;25928;51.062;13.752;2022-10-22T10:01:39;16.23;;;12.47;;
815;SDS011;25928;51.062;13.752;2022-10-22T10:04:11;15.33;;;12.63;;
815;SDS011;25928;51.062;13.752;2022-10-22T10:06:39;12.63;;;11.37;;
815;SDS011;25928;51.062;13.752;2022-10-22T10:09:20;12.90;;;11.70;;
815;SDS011;25928;51.062;13.752;2022-10-22T10:11:48;13.20;;;11.50;;
815;SDS011;25928;51.062;13.752;2022-10-22T10:17:42;12.03;;;10.73;;
815;SDS011;25928;51.062;13.752;2022-10-22T10:20:39;13.30;;;10.80;;
815;SDS011;25928;51.062;13.752;2022-10-22T10:26:04;11.83;;;10.60;;
815;SDS011;25928;51.062;13.752;2022-10-22T10:31:36;13.03;;;10.90;;
815;SDS011;25928;51.062;13.752;2022-10-22T10:34:33;11.63;;;10.50;;
815;SDS011;25928;51.062;13.752;2022-10-22T10:37:20;12.67;;;11.17;;
815;SDS011;25928;51.062;13.752;2022-10-22T10:42:35;11.37;;;10.27;;
815;SDS011;25928;51.062;13.752;2022-10-22T10:45:15;12.23;;;10.40;;
815;SDS011;25928;51.062;13.752;2022-10-22T10:53:43;10.90;;;9.80;;
815;SDS011;25928;51.062;13.752;2022-10-22T10:56:38;12.33;;;9.50;;
815;SDS011;25928;51.062;13.752;2022-10-22T11:04:32;11.93;;;8.77;;
815;SDS011;25928;51.062;13.752;2022-10-22T11:07:13;10.30;;;8.23;;
815;SDS011;25928;51.062;13.752;2022-10-22T11:09:47;9.33;;;8.43;;
815;SDS011;25928;51.062;13.752;2022-10-22T11:12:19;12.57;;;8.53;;
815;SDS011;25928;51.062;13.752;2022-10-22T11:17:32;9.43;;;8.50;;
815;SDS011;25928;51.062;13.752;2022-10-22T11:20:05;10.30;;;9.30;;
815;SDS011;25928;51.062;13.752;2022-10-22T11:22:39;9.67;;;8.77;;
815;SDS011;25928;51.062;13.752;2022-10-22T11:30:19;10.60;;;9.50;;
815;SDS011;25928;51.062;13.752;2022-10-22T11:32:47;9.63;;;8.73;;
815;SDS011;25928;51.062;13.752;2022-10-22T11:35:19;11.77;;;9.10;;
815;SDS011;25928;51.062;13.752;2022-10-22T11:37:50;11.03;;;9.83;;
815;SDS011;25928;51.062;13.752;2022-10-22T11:40:20;10.53;;;9.40;;
815;SDS011;25928;51.062;13.752;2022-10-22T11:42:56;10.50;;;8.93;;
815;SDS011;25928;51.062;13.752;2022-10-22T11:48:03;8.47;;;7.50;;
815;SDS011;25928;51.062;13.752;2022-10-22T11:50:50;9.33;;;8.30;;
815;SDS011;25928;51.062;13.752;2022-10-22T11:55:55;10.10;;;7.50;;
815;SDS011;25928;51.062;13.752;2022-10-22T12:06:07;8.53;;;7.80;;
815;SDS011;25928;51.062;13.752;2022-10-22T12:11:38;9.40;;;8.50;;
815;SDS011;25928;51.062;13.752;2022-10-22T12:16:50;8.73;;;7.97;;
815;SDS011;25928;51.062;13.752;2022-10-22T12:22:01;9.43;;;7.80;;
815;SDS011;25928;51.062;13.752;2022-10-22T12:24:48;9.10;;;8.10;;
815;SDS011;25928;51.062;13.752;2022-10-22T12:27:25;8.83;;;7.93;;
815;SDS011;25928;51.062;13.752;2022-10-22T12:29:55;9.87;;;8.20;;
815;SDS011;25928;51.062;13.752;2022-10-22T12:32:23;8.17;;;7.37;;
815;SDS011;25928;51.062;13.752;2022-10-22T12:35:19;9.60;;;8.70;;
815;SDS011;25928;51.062;13.752;2022-10-22T12:37:50;8.57;;;7.80;;
815;SDS011;25928;51.062;13.752;2022-10-22T12:40:17;13.77;;;8.00;;
815;SDS011;25928;51.062;13.752;2022-10-22T12:42:57;7.73;;;7.10;;
815;SDS011;25928;51.062;13.752;2022-10-22T12:45:35;8.63;;;7.63;;
815;SDS011;25928;51.062;13.752;2022-10-22T12:48:07;8.73;;;7.57;;
815;SDS011;25928;51.062;13.752;2022-10-22T12:50:39;9.33;;;8.23;;
815;SDS011;25928;51.062;13.752;2022-10-22T12:53:14;9.17;;;8.27;;
815;SDS011;25928;51.062;13.752;2022-10-22T12:55:45;7.97;;;7.10;;
815;SDS011;25928;51.062;13.752;2022-10-22T12:58:17;8.63;;;7.50;;
815;SDS011;25928;51.062;13.752;2022-10-22T13:00:45;8.40;;;6.50;;
815;SDS011;25928;51.062;13.752;2022-10-22T13:03:23;11.57;;;10.30;;
815;SDS011;25928;51.062;13.752;2022-10-22T13:05:54;9.10;;;8.20;;
815;SDS011;25928;51.062;13.752;2022-10-22T13:08:21;9.97;;;8.70;;
815;SDS011;25928;51.062;13.752;2022-10-22T13:10:51;9.00;;;8.20;;
815;SDS011;25928;51.062;13.752;2022-10-22T13:16:19;8.00;;;7.30;;
815;SDS011;25928;51.062;13.752;2022-10-22T13:18:48;7.27;;;6.67;;
815;SDS011;25928;51.062;13.752;2022-10-22T13:21:34;7.13;;;6.53;;
815;SDS011;25928;51.062;13.752;2022-10-22T13:24:19;7.57;;;6.93;;
815;SDS011;25928;51.062;13.752;2022-10-22T13:26:50;3.73;;;3.40;;
815;SDS011;25928;51.062;13.752;2022-10-22T13:29:18;1.50;;;1.40;;
815;SDS011;25928;51.062;13.752;2022-10-22T13:31:48;3.60;;;3.30;;
815;SDS011;25928;51.062;13.752;2022-10-22T13:34:17;1.57;;;1.47;;
815;SDS011;25928;51.062;13.752;2022-10-22T13:36:45;1.30;;;1.10;;
815;SDS011;25928;51.062;13.752;2022-10-22T13:39:14;1.53;;;0.93;;
815;SDS011;25928;51.062;13.752;2022-10-22T13:41:45;2.13;;;1.10;;
815;SDS011;25928;51.062;13.752;2022-10-22T13:44:11;1.37;;;1.27;;
815;SDS011;25928;51.062;13.752;2022-10-22T13:46:37;1.20;;;1.10;;
815;SDS011;25928;51.062;13.752;2022-10-22T13:49:06;4.03;;;3.63;;
815;SDS011;25928;51.062;13.752;2022-10-22T13:51:38;1.20;;;1.03;;
815;SDS011;25928;51.062;13.752;2022-10-22T13:54:05;2.13;;;1.17;;
815;SDS011;25928;51.062;13.752;2022-10-22T13:56:37;1.60;;;1.20;;
815;SDS011;25928;51.062;13.752;2022-10-22T13:59:02;3.50;;;1.17;;
815;SDS011;25928;51.062;13.752;2022-10-22T14:01:28;2.17;;;1.40;;
815;SDS011;25928;51.062;13.752;2022-10-22T14:03:55;2.30;;;1.30;;
815;SDS011;25928;51.062;13.752;2022-10-22T14:06:22;0.90;;;0.80;;
815;SDS011;25928;51.062;13.752;2022-10-22T14:08:55;2.10;;;1.23;;
815;SDS011;25928;51.062;13.752;2022-10-22T14:11:22;1.20;;;1.00;;
815;SDS011;25928;51.062;13.752;2022-10-22T14:13:49;2.30;;;1.43;;
815;SDS011;25928;51.062;13.752;2022-10-22T14:16:16;1.73;;;0.90;;
815;SDS011;25928;51.062;13.752;2022-10-22T14:18:44;2.80;;;1.00;;
815;SDS011;25928;51.062;13.752;2022-10-22T14:21:11;1.60;;;1.00;;
815;SDS011;25928;51.062;13.752;2022-10-22T14:23:38;1.33;;;1.00;;
815;SDS011;25928;51.062;13.752;2022-10-22T14:26:05;1.47;;;1.13;;
815;SDS011;25928;51.062;13.752;2022-10-22T14:28:32;1.20;;;1.10;;
815;SDS011;25928;51.062;13.752;2022-10-22T14:30:58;3.43;;;1.30;;
815;SDS011;25928;51.062;13.752;2022-10-22T14:33:25;1.17;;;1.07;;
815;SDS011;25928;51.062;13.752;2022-10-22T14:35:54;1.87;;;1.27;;
815;SDS011;25928;51.062;13.752;2022-10-22T14:38:20;1.30;;;0.80;;
815;SDS011;25928;51.062;13.752;2022-10-22T14:40:45;1.00;;;0.80;;
815;SDS011;25928;51.062;13.752;2022-10-22T14:43:17;3.80;;;1.30;;
815;SDS011;25928;51.062;13.752;2022-10-22T14:45:46;1.10;;;0.80;;
815;SDS011;25928;51.062;13.752;2022-10-22T14:48:12;0.87;;;0.87;;
815;SDS011;25928;51.062;13.752;2022-10-22T14:50:38;0.90;;;0.70;;
815;SDS011;25928;51.062;13.752;2022-10-22T14:53:03;1.50;;;1.00;;
815;SDS011;25928;51.062;13.752;2022-10-22T14:55:29;1.47;;;1.33;;
815;SDS011;25928;51.062;13.752;2022-10-22T14:57:56;1.67;;;1.43;;
815;SDS011;25928;51.062;13.752;2022-10-22T15:00:22;2.30;;;1.70;;
815;SDS011;25928;51.062;13.752;2022-10-22T15:02:47;1.90;;;1.47;;
815;SDS011;25928;51.062;13.752;2022-10-22T15:05:13;1.77;;;1.30;;
815;SDS011;25928;51.062;13.752;2022-10-22T15:07:41;1.83;;;0.70;;
815;SDS011;25928;51.062;13.752;2022-10-22T15:10:08;1.93;;;1.10;;
815;SDS011;25928;51.062;13.752;2022-10-22T15:12:33;2.97;;;1.03;;
815;SDS011;25928;51.062;13.752;2022-10-22T15:14:59;2.17;;;1.50;;
815;SDS011;25928;51.062;13.752;2022-10-22T15:17:25;2.70;;;1.40;;
815;SDS011;25928;51.062;13.752;2022-10-22T15:19:50;2.17;;;1.57;;
815;SDS011;25928;51.062;13.752;2022-10-22T15:22:17;1.30;;;1.20;;
815;SDS011;25928;51.062;13.752;2022-10-22T15:24:43;3.07;;;1.10;;
815;SDS011;25928;51.062;13.752;2022-10-22T15:27:12;1.40;;;1.00;;
815;SDS011;25928;51.062;13.752;2022-10-22T15:29:38;3.67;;;0.97;;
815;SDS011;25928;51.062;13.752;2022-10-22T15:32:06;1.47;;;1.30;;
815;SDS011;25928;51.062;13.752;2022-10-22T15:34:36;1.67;;;1.23;;
815;SDS011;25928;51.062;13.752;2022-10-22T15:37:04;1.53;;;1.10;;
815;SDS011;25928;51.062;13.752;2022-10-22T15:39:31;1.93;;;1.30;;
815;SDS011;25928;51.062;13.752;2022-10-22T15:41:57;2.07;;;1.37;;
815;SDS011;25928;51.062;13.752;2022-10-22T15:44:24;2.30;;;1.43;;
815;SDS011;25928;51.062;13.752;2022-10-22T15:46:52;3.73;;;1.10;;
815;SDS011;25928;51.062;13.752;2022-10-22T15:49:22;1.53;;;1.40;;
815;SDS011;25928;51.062;13.752;2022-10-22T15:51:49;2.23;;;1.57;;
815;SDS011;25928;51.062;13.752;2022-10-22T15:54:19;3.13;;;1.70;;
815;SDS011;25928;51.062;13.752;2022-10-22T15:56:47;1.57;;;1.43;;
815;SDS011;25928;51.062;13.752;2022-10-22T15:59:13;1.70;;;1.40;;
815;SDS011;25928;51.062;13.752;2022-10-22T16:01:40;3.13;;;2.00;;
815;SDS011;25928;51.062;13.752;2022-10-22T16:04:06;2.07;;;1.80;;
815;SDS011;25928;51.062;13.752;2022-10-22T16:06:33;4.80;;;2.97;;
815;SDS011;25928;51.062;13.752;2022-10-22T16:09:03;3.80;;;2.60;;
815;SDS011;25928;51.062;13.752;2022-10-22T16:11:31;3.40;;;2.60;;
815;SDS011;25928;51.062;13.752;2022-10-22T16:13:57;2.83;;;2.10;;
815;SDS011;25928;51.062;13.752;2022-10-22T16:16:25;4.40;;;2.73;;
815;SDS011;25928;51.062;13.752;2022-10-22T16:18:53;2.23;;;2.00;;
815;SDS011;25928;51.062;13.752;2022-10-22T16:21:19;2.43;;;2.23;;
815;SDS011;25928;51.062;13.752;2022-10-22T16:23:46;3.77;;;3.20;;
815;SDS011;25928;51.062;13.752;2022-10-22T16:26:12;5.37;;;4.33;;
815;SDS011;25928;51.062;13.752;2022-10-22T16:28:39;7.70;;;5.17;;
815;SDS011;25928;51.062;13.752;2022-10-22T16:31:06;7.10;;;6.50;;
815;SDS011;25928;51.062;13.752;2022-10-22T16:33:33;8.73;;;7.83;;
815;SDS011;25928;51.062;13.752;2022-10-22T16:35:59;10.93;;;9.90;;
815;SDS011;25928;51.062;13.752;2022-10-22T16:38:25;13.00;;;11.60;;
815;SDS011;25928;51.062;13.752;2022-10-22T16:40:51;13.90;;;12.17;;
815;SDS011;25928;51.062;13.752;2022-10-22T16:43:17;15.73;;;12.40;;